createdAt,value
2018-09-08T00:00:39.760Z,10.90
2018-09-08T00:03:08.495Z,10.90
2018-09-08T00:05:37.170Z,10.80
2018-09-08T00:08:05.887Z,10.70
2018-09-08T00:10:34.801Z,10.70
2018-09-08T00:13:03.756Z,10.70
2018-09-08T00:15:38.252Z,10.70
2018-09-08T00:18:12.488Z,10.70
2018-09-08T00:20:46.662Z,10.60
2018-09-08T00:23:21.047Z,10.60
2018-09-08T00:25:56.300Z,10.60
2018-09-08T00:28:34.327Z,10.60
2018-09-08T00:31:03.442Z,10.60
2018-09-08T00:33:32.078Z,10.70
2018-09-08T00:36:01.433Z,10.60
2018-09-08T00:38:30.294Z,10.70
2018-09-08T00:40:58.965Z,10.70
2018-09-08T00:43:27.940Z,10.70
2018-09-08T00:45:56.564Z,10.70
2018-09-08T00:48:25.171Z,10.70
2018-09-08T00:50:53.886Z,10.60
2018-09-08T00:53:22.440Z,10.60
2018-09-08T00:55:51.255Z,10.60
2018-09-08T00:58:20.031Z,10.60
2018-09-08T01:00:48.887Z,10.60
2018-09-08T01:03:17.701Z,10.60
2018-09-08T01:05:46.378Z,10.50
2018-09-08T01:08:15.094Z,10.30
2018-09-08T01:10:44.010Z,10.40
2018-09-08T01:13:12.925Z,10.40
2018-09-08T01:15:42.054Z,10.40
2018-09-08T01:18:10.693Z,10.50
2018-09-08T01:20:39.469Z,10.50
2018-09-08T01:23:10.407Z,10.50
2018-09-08T01:25:39.892Z,10.50
2018-09-08T01:28:16.471Z,10.50
2018-09-08T01:30:45.410Z,10.60
2018-09-08T01:33:15.444Z,10.60
2018-09-08T01:35:48.136Z,10.60
2018-09-08T01:38:17.340Z,10.60
2018-09-08T01:40:46.572Z,10.60
2018-09-08T01:43:15.447Z,10.60
2018-09-08T01:45:44.661Z,10.60
2018-09-08T01:48:15.559Z,10.50
2018-09-08T01:50:44.366Z,10.50
2018-09-08T01:53:13.023Z,10.50
2018-09-08T01:55:41.623Z,10.50
2018-09-08T01:58:10.299Z,10.50
2018-09-08T02:00:39.087Z,10.60
2018-09-08T02:03:08.090Z,10.60
2018-09-08T02:05:36.722Z,10.60
2018-09-08T02:08:06.163Z,10.60
2018-09-08T02:10:36.456Z,10.60
2018-09-08T02:13:05.151Z,10.60
2018-09-08T02:15:34.065Z,10.50
2018-09-08T02:18:03.066Z,10.40
2018-09-08T02:20:32.396Z,10.30
2018-09-08T02:23:01.272Z,10.30
2018-09-08T02:25:30.308Z,10.20
2018-09-08T02:27:59.303Z,10.30
2018-09-08T02:30:28.298Z,10.30
2018-09-08T02:32:57.421Z,10.20
2018-09-08T02:35:26.328Z,10.30
2018-09-08T02:37:55.264Z,10.20
2018-09-08T02:40:24.799Z,10.10
2018-09-08T02:42:53.866Z,10.10
2018-09-08T02:45:22.750Z,10.20
2018-09-08T02:47:51.847Z,10.20
2018-09-08T02:50:32.601Z,10.20
2018-09-08T02:53:00.943Z,10.20
2018-09-08T02:55:29.299Z,10.20
2018-09-08T02:57:57.215Z,10.20
2018-09-08T03:00:25.505Z,10.10
2018-09-08T03:02:53.416Z,10.20
2018-09-08T03:05:21.734Z,10.20
2018-09-08T03:07:49.608Z,10.30
2018-09-08T03:10:17.484Z,10.30
2018-09-08T03:12:45.118Z,10.40
2018-09-08T03:15:12.654Z,10.50
2018-09-08T03:17:40.189Z,10.60
2018-09-08T03:20:07.744Z,10.60
2018-09-08T03:22:35.279Z,10.60
2018-09-08T03:25:02.935Z,10.70
2018-09-08T03:27:30.492Z,10.80
2018-09-08T03:29:58.035Z,10.80
2018-09-08T03:32:25.561Z,10.90
2018-09-08T03:34:52.977Z,10.90
2018-09-08T03:37:20.393Z,11.00
2018-09-08T03:39:47.807Z,11.00
2018-09-08T03:42:15.363Z,11.00
2018-09-08T03:44:42.936Z,11.00
2018-09-08T03:47:10.532Z,11.00
2018-09-08T03:49:38.049Z,11.10
2018-09-08T03:54:46.638Z,11.10
2018-09-08T03:57:14.114Z,11.10
2018-09-08T03:59:41.783Z,11.20
2018-09-08T04:02:09.562Z,11.30
2018-09-08T04:04:38.566Z,11.30
2018-09-08T04:07:10.922Z,11.20
2018-09-08T04:09:40.390Z,11.20
2018-09-08T04:12:09.668Z,11.10
2018-09-08T04:14:38.382Z,11.00
2018-09-08T04:17:07.736Z,10.90
2018-09-08T04:19:36.871Z,10.90
2018-09-08T04:22:07.346Z,10.90
2018-09-08T04:24:37.791Z,10.80
2018-09-08T04:27:08.120Z,10.70
2018-09-08T04:29:39.186Z,10.60
2018-09-08T04:32:07.948Z,10.50
2018-09-08T04:34:37.702Z,10.50
2018-09-08T04:37:07.091Z,10.50
2018-09-08T04:39:36.738Z,10.40
2018-09-08T04:42:06.463Z,10.40
2018-09-08T04:44:36.184Z,10.40
2018-09-08T04:47:05.159Z,10.40
2018-09-08T04:49:35.194Z,10.40
2018-09-08T04:52:04.389Z,10.40
2018-09-08T04:54:33.212Z,10.40
2018-09-08T04:57:02.030Z,10.30
2018-09-08T04:59:31.615Z,10.30
2018-09-08T05:02:00.870Z,10.30
2018-09-08T05:04:30.527Z,10.20
2018-09-08T05:06:59.439Z,10.30
2018-09-08T05:09:29.309Z,10.30
2018-09-08T05:11:58.369Z,10.30
2018-09-08T05:14:27.304Z,10.30
2018-09-08T05:17:01.020Z,10.40
2018-09-08T05:19:31.073Z,10.40
2018-09-08T05:22:00.168Z,10.40
2018-09-08T05:24:37.180Z,10.50
2018-09-08T05:27:06.897Z,10.60
2018-09-08T05:29:36.322Z,10.60
2018-09-08T05:32:08.089Z,10.70
2018-09-08T05:34:38.375Z,10.80
2018-09-08T05:37:08.559Z,10.90
2018-09-08T05:39:41.352Z,10.90
2018-09-08T05:44:45.274Z,11.00
2018-09-08T05:47:14.006Z,11.00
2018-09-08T05:49:43.880Z,11.10
2018-09-08T05:52:14.043Z,11.20
2018-09-08T05:54:42.941Z,11.80
2018-09-08T05:57:11.756Z,12.80
2018-09-08T05:59:40.953Z,13.90
2018-09-08T06:02:11.206Z,14.50
2018-09-08T06:04:40.161Z,14.10
2018-09-08T06:07:09.557Z,13.70
2018-09-08T06:09:38.310Z,13.40
2018-09-08T06:12:06.962Z,13.00
2018-09-08T06:14:35.919Z,12.70
2018-09-08T06:17:05.596Z,12.60
2018-09-08T06:19:34.519Z,12.60
2018-09-08T06:22:03.244Z,12.50
2018-09-08T06:24:32.165Z,12.50
2018-09-08T06:27:00.972Z,12.40
2018-09-08T06:29:29.709Z,12.30
2018-09-08T06:31:58.324Z,12.30
2018-09-08T06:34:27.140Z,12.50
2018-09-08T06:37:00.233Z,12.60
2018-09-08T06:39:29.585Z,12.80
2018-09-08T06:41:58.244Z,13.00
2018-09-08T06:44:27.978Z,12.90
2018-09-08T06:46:56.654Z,13.30
2018-09-08T06:49:25.615Z,14.60
2018-09-08T06:51:54.284Z,16.70
2018-09-08T06:54:22.859Z,18.50
2018-09-08T06:56:50.613Z,19.40
2018-09-08T06:59:18.487Z,20.80
2018-09-08T07:01:46.303Z,22.00
2018-09-08T07:04:14.177Z,22.30
2018-09-08T07:06:42.120Z,23.30
2018-09-08T07:09:15.940Z,23.30
2018-09-08T07:11:43.882Z,22.90
2018-09-08T07:14:11.717Z,23.10
2018-09-08T07:16:39.433Z,23.30
2018-09-08T07:21:27.583Z,22.90
2018-09-08T07:23:55.474Z,22.10
2018-09-08T07:26:23.992Z,22.00
2018-09-08T07:28:53.454Z,21.80
2018-09-08T07:31:21.362Z,21.70
2018-09-08T07:33:50.120Z,21.50
2018-09-08T07:36:17.975Z,22.00
2018-09-08T07:38:45.664Z,22.80
2018-09-08T07:41:13.343Z,22.30
2018-09-08T07:43:41.015Z,23.80
2018-09-08T07:46:08.947Z,23.50
2018-09-08T07:48:36.405Z,22.20
2018-09-08T07:51:04.958Z,21.50
2018-09-08T07:53:32.824Z,21.60
2018-09-08T07:56:00.554Z,22.10
2018-09-08T07:58:28.331Z,21.90
2018-09-08T08:00:56.358Z,22.50
2018-09-08T08:03:24.211Z,22.30
2018-09-08T08:05:52.448Z,22.80
2018-09-08T08:08:20.091Z,22.70
2018-09-08T08:10:48.483Z,22.50
2018-09-08T08:13:16.526Z,22.70
2018-09-08T08:15:44.281Z,23.30
2018-09-08T08:18:12.167Z,22.40
2018-09-08T08:20:40.703Z,21.60
2018-09-08T08:23:09.578Z,21.20
2018-09-08T08:25:38.139Z,21.20
2018-09-08T08:28:07.142Z,21.10
2018-09-08T08:30:35.981Z,21.50
2018-09-08T08:33:05.117Z,22.00
2018-09-08T08:35:33.930Z,21.60
2018-09-08T08:38:01.680Z,21.40
2018-09-08T08:40:29.663Z,22.10
2018-09-08T08:42:57.935Z,22.40
2018-09-08T08:45:25.709Z,23.10
2018-09-08T08:47:53.446Z,23.50
2018-09-08T08:50:27.278Z,23.60
2018-09-08T08:53:00.893Z,22.90
2018-09-08T08:55:28.715Z,23.90
2018-09-08T08:57:56.586Z,23.60
2018-09-08T09:00:24.840Z,24.60
2018-09-08T09:02:53.336Z,23.80
2018-09-08T09:05:21.298Z,24.50
2018-09-08T09:07:49.286Z,23.60
2018-09-08T09:10:17.121Z,24.00
2018-09-08T09:12:46.020Z,24.50
2018-09-08T09:15:15.184Z,25.90
2018-09-08T09:17:43.377Z,25.10
2018-09-08T09:20:17.004Z,24.90
2018-09-08T09:22:57.038Z,25.40
2018-09-08T09:25:24.850Z,24.30
2018-09-08T09:27:52.966Z,24.20
2018-09-08T09:30:21.324Z,24.20
2018-09-08T09:32:49.014Z,24.10
2018-09-08T09:35:17.984Z,25.10
2018-09-08T09:37:45.706Z,25.20
2018-09-08T09:40:15.908Z,24.10
2018-09-08T09:42:43.859Z,24.60
2018-09-08T09:45:12.648Z,24.10
2018-09-08T09:47:41.191Z,23.70
2018-09-08T09:50:11.058Z,23.30
2018-09-08T09:52:39.929Z,22.80
2018-09-08T09:55:08.818Z,22.40
2018-09-08T09:57:37.275Z,22.70
2018-09-08T10:00:07.729Z,22.10
2018-09-08T10:02:40.800Z,22.00
2018-09-08T10:05:11.752Z,21.50
2018-09-08T10:07:39.448Z,21.10
2018-09-08T10:10:07.727Z,21.30
2018-09-08T10:12:37.863Z,21.50
2018-09-08T10:15:06.113Z,21.00
2018-09-08T10:17:34.311Z,21.50
2018-09-08T10:20:03.244Z,21.50
2018-09-08T10:22:31.719Z,21.50
2018-09-08T10:25:00.196Z,21.20
2018-09-08T10:27:29.728Z,21.10
2018-09-08T10:29:57.558Z,21.00
2018-09-08T10:32:25.343Z,21.20
2018-09-08T10:34:53.163Z,21.60
2018-09-08T10:37:22.222Z,21.30
2018-09-08T10:39:49.998Z,20.70
2018-09-08T10:42:17.780Z,20.50
2018-09-08T10:44:45.511Z,20.80
2018-09-08T10:47:13.364Z,20.70
2018-09-08T10:49:42.289Z,20.30
2018-09-08T10:52:44.363Z,20.20
2018-09-08T10:55:13.955Z,19.90
2018-09-08T10:57:42.595Z,20.00
2018-09-08T11:00:11.231Z,20.20
2018-09-08T11:02:39.242Z,20.50
2018-09-08T11:05:06.704Z,20.40
2018-09-08T11:07:34.419Z,20.90
2018-09-08T11:10:02.399Z,21.00
2018-09-08T11:12:30.912Z,21.00
2018-09-08T11:14:58.779Z,21.00
2018-09-08T11:17:26.799Z,21.30
2018-09-08T11:19:55.867Z,20.90
2018-09-08T11:22:23.705Z,20.30
2018-09-08T11:24:51.395Z,20.00
2018-09-08T11:27:19.247Z,20.40
2018-09-08T11:29:47.383Z,21.00
2018-09-08T11:32:15.679Z,21.30
2018-09-08T11:34:43.756Z,21.30
2018-09-08T11:37:12.314Z,21.10
2018-09-08T11:39:40.131Z,21.50
2018-09-08T11:42:07.906Z,21.30
2018-09-08T11:44:35.624Z,21.20
2018-09-08T11:47:03.586Z,21.20
2018-09-08T11:49:31.636Z,21.00
2018-09-08T11:51:59.415Z,20.90
2018-09-08T11:54:27.167Z,20.90
2018-09-08T11:56:55.333Z,20.90
2018-09-08T11:59:23.655Z,21.10
2018-09-08T12:01:51.501Z,20.80
2018-09-08T12:04:19.255Z,21.00
2018-09-08T12:06:47.301Z,20.80
2018-09-08T12:09:15.393Z,20.80
2018-09-08T12:11:43.331Z,21.00
2018-09-08T12:14:11.724Z,21.60
2018-09-08T12:16:39.882Z,21.50
2018-09-08T12:19:07.698Z,21.10
2018-09-08T12:21:35.535Z,20.90
2018-09-08T12:24:03.927Z,21.10
2018-09-08T12:26:31.597Z,20.90
2018-09-08T12:29:00.260Z,21.00
2018-09-08T12:31:28.007Z,21.20
2018-09-08T12:33:55.768Z,21.00
2018-09-08T12:36:23.654Z,20.80
2018-09-08T12:38:51.869Z,20.90
2018-09-08T12:41:19.868Z,20.80
2018-09-08T12:43:48.525Z,20.70
2018-09-08T12:46:16.234Z,20.80
2018-09-08T12:48:44.223Z,20.80
2018-09-08T12:51:12.267Z,21.10
2018-09-08T12:53:40.172Z,21.20
2018-09-08T12:56:08.148Z,21.10
2018-09-08T12:58:36.163Z,21.20
2018-09-08T13:01:04.090Z,21.00
2018-09-08T13:03:32.791Z,20.90
2018-09-08T13:06:01.013Z,21.10
2018-09-08T13:08:29.000Z,21.30
2018-09-08T13:10:56.780Z,21.70
2018-09-08T13:13:24.520Z,21.60
2018-09-08T13:15:52.576Z,21.70
2018-09-08T13:18:20.952Z,21.20
2018-09-08T13:20:51.292Z,21.10
2018-09-08T13:23:20.174Z,21.10
2018-09-08T13:25:49.239Z,21.30
2018-09-08T13:28:17.824Z,21.20
2018-09-08T13:30:46.296Z,21.40
2018-09-08T13:33:13.979Z,21.20
2018-09-08T13:35:42.167Z,21.40
2018-09-08T13:38:10.135Z,21.60
2018-09-08T13:40:38.157Z,21.70
2018-09-08T13:43:05.938Z,22.10
2018-09-08T13:45:33.690Z,22.40
2018-09-08T13:48:01.691Z,22.30
2018-09-08T13:50:29.783Z,21.80
2018-09-08T13:52:57.867Z,21.50
2018-09-08T13:55:25.872Z,21.20
2018-09-08T13:57:53.627Z,21.20
2018-09-08T14:00:21.398Z,21.30
2018-09-08T14:02:49.219Z,21.00
2018-09-08T14:05:17.120Z,21.10
2018-09-08T14:07:50.828Z,21.40
2018-09-08T14:10:18.964Z,21.50
2018-09-08T14:12:46.719Z,21.50
2018-09-08T14:15:15.120Z,21.80
2018-09-08T14:17:42.869Z,22.10
2018-09-08T14:20:11.457Z,22.50
2018-09-08T14:22:39.584Z,22.50
2018-09-08T14:25:07.670Z,22.10
2018-09-08T14:27:36.573Z,21.80
2018-09-08T14:30:05.989Z,21.60
2018-09-08T14:32:36.148Z,21.50
2018-09-08T14:35:08.858Z,21.70
2018-09-08T14:37:37.832Z,21.70
2018-09-08T14:40:07.288Z,21.60
2018-09-08T14:42:35.687Z,22.00
2018-09-08T14:45:04.088Z,22.30
2018-09-08T14:47:32.502Z,22.50
2018-09-08T14:50:00.955Z,22.50
2018-09-08T14:52:29.403Z,22.70
2018-09-08T14:54:57.989Z,22.80
2018-09-08T14:57:26.396Z,22.80
2018-09-08T14:59:54.892Z,22.80
2018-09-08T15:02:23.316Z,22.80
2018-09-08T15:04:51.723Z,22.80
2018-09-08T15:07:20.141Z,22.80
2018-09-08T15:09:48.655Z,22.80
2018-09-08T15:12:17.168Z,22.80
2018-09-08T15:14:45.658Z,22.80
2018-09-08T15:17:14.129Z,22.80
2018-09-08T15:19:42.627Z,22.80
2018-09-08T15:22:11.003Z,22.80
2018-09-08T15:24:39.432Z,22.80
2018-09-08T15:27:07.824Z,22.80
2018-09-08T15:29:36.304Z,22.80
2018-09-08T15:32:04.687Z,22.80
2018-09-08T15:34:33.212Z,22.70
2018-09-08T15:37:01.616Z,22.70
2018-09-08T15:39:30.042Z,22.70
2018-09-08T15:41:58.420Z,22.70
2018-09-08T15:44:26.843Z,22.70
2018-09-08T15:46:55.272Z,22.70
2018-09-08T15:49:23.679Z,22.70
2018-09-08T15:51:52.070Z,22.70
2018-09-08T15:54:20.513Z,22.70
2018-09-08T15:56:48.911Z,22.60
2018-09-08T15:59:17.340Z,22.60
2018-09-08T16:01:45.730Z,22.60
2018-09-08T16:04:14.183Z,22.70
2018-09-08T16:06:42.568Z,22.60
2018-09-08T16:09:10.976Z,22.70
2018-09-08T16:11:39.417Z,22.80
2018-09-08T16:14:07.915Z,22.90
2018-09-08T16:16:36.323Z,23.00
2018-09-08T16:19:06.664Z,23.00
2018-09-08T16:21:36.069Z,22.90
2018-09-08T16:24:04.484Z,23.00
2018-09-08T16:26:32.885Z,23.00
2018-09-08T16:31:40.497Z,22.90
2018-09-08T16:34:09.067Z,22.20
2018-09-08T16:36:37.609Z,20.90
2018-09-08T16:39:09.064Z,20.40
2018-09-08T16:41:37.728Z,19.90
2018-09-08T16:44:07.031Z,19.90
2018-09-08T16:46:35.577Z,19.90
2018-09-08T16:49:04.586Z,19.70
2018-09-08T16:51:33.091Z,19.70
2018-09-08T16:54:01.726Z,19.70
2018-09-08T16:56:30.479Z,19.70
2018-09-08T16:58:59.147Z,19.70
2018-09-08T17:01:27.632Z,19.60
2018-09-08T17:03:56.276Z,19.40
2018-09-08T17:06:25.013Z,19.40
2018-09-08T17:08:53.666Z,19.40
2018-09-08T17:11:22.595Z,19.30
2018-09-08T17:13:51.272Z,19.30
2018-09-08T17:16:19.854Z,19.30
2018-09-08T17:18:48.389Z,19.20
2018-09-08T17:21:16.905Z,19.20
2018-09-08T17:23:46.080Z,19.20
2018-09-08T17:26:14.835Z,19.10
2018-09-08T17:28:43.579Z,18.90
2018-09-08T17:31:12.299Z,18.90
2018-09-08T17:33:41.142Z,18.80
2018-09-08T17:36:10.122Z,18.70
2018-09-08T17:38:38.740Z,18.60
2018-09-08T17:41:07.693Z,18.50
2018-09-08T17:43:36.444Z,18.40
2018-09-08T17:46:05.358Z,18.40
2018-09-08T17:48:34.013Z,18.40
2018-09-08T17:51:02.570Z,18.20
2018-09-08T17:53:31.329Z,18.20
2018-09-08T17:56:00.020Z,18.00
2018-09-08T17:58:28.850Z,17.90
2018-09-08T18:00:57.683Z,17.90
2018-09-08T18:03:26.586Z,17.90
2018-09-08T18:05:55.212Z,17.80
2018-09-08T18:08:25.930Z,17.80
2018-09-08T18:10:56.232Z,17.80
2018-09-08T18:13:25.347Z,17.90
2018-09-08T18:15:53.777Z,17.90
2018-09-08T18:18:22.537Z,17.80
2018-09-08T18:20:51.208Z,17.80
2018-09-08T18:23:19.745Z,17.80
2018-09-08T18:25:48.140Z,17.70
2018-09-08T18:28:16.624Z,17.70
2018-09-08T18:30:45.022Z,17.70
2018-09-08T18:33:13.451Z,17.70
2018-09-08T18:35:41.837Z,17.70
2018-09-08T18:38:10.223Z,17.60
2018-09-08T18:40:38.609Z,17.60
2018-09-08T18:43:07.120Z,17.50
2018-09-08T18:45:35.488Z,17.50
2018-09-08T18:48:03.904Z,17.50
2018-09-08T18:50:32.264Z,17.50
2018-09-08T18:53:00.671Z,17.50
2018-09-08T18:55:29.036Z,17.50
2018-09-08T18:57:57.436Z,17.50
2018-09-08T19:00:25.815Z,17.50
2018-09-08T19:02:54.224Z,17.40
2018-09-08T19:05:22.579Z,17.30
2018-09-08T19:07:50.976Z,17.40
2018-09-08T19:10:19.347Z,17.30
2018-09-08T19:12:47.760Z,17.30
2018-09-08T19:15:17.275Z,17.30
2018-09-08T19:17:45.891Z,17.20
2018-09-08T19:20:19.777Z,17.10
2018-09-08T19:22:48.210Z,17.00
2018-09-08T19:25:16.568Z,17.10
2018-09-08T19:27:44.996Z,16.90
2018-09-08T19:30:13.392Z,16.90
2018-09-08T19:32:41.835Z,16.90
2018-09-08T19:35:15.557Z,16.90
2018-09-08T19:37:43.975Z,16.90
2018-09-08T19:40:17.549Z,16.80
2018-09-08T19:42:46.493Z,16.90
2018-09-08T19:45:14.865Z,16.70
2018-09-08T19:47:48.718Z,16.70
2018-09-08T19:50:17.123Z,16.70
2018-09-08T19:52:51.084Z,16.60
2018-09-08T19:55:19.500Z,16.50
2018-09-08T19:57:53.270Z,16.50
2018-09-08T20:00:21.657Z,16.60
2018-09-08T20:02:50.092Z,16.60
2018-09-08T20:05:18.536Z,16.60
2018-09-08T20:07:46.944Z,16.60
2018-09-08T20:10:15.364Z,16.60
2018-09-08T20:12:43.883Z,16.60
2018-09-08T20:15:12.279Z,16.60
2018-09-08T20:17:40.665Z,16.60
2018-09-08T20:20:09.124Z,16.50
2018-09-08T20:22:37.525Z,16.50
2018-09-08T20:25:06.028Z,16.50
2018-09-08T20:27:34.685Z,16.50
2018-09-08T20:30:03.113Z,16.30
2018-09-08T20:32:31.497Z,16.30
2018-09-08T20:34:59.970Z,16.30
2018-09-08T20:37:28.336Z,16.30
2018-09-08T20:39:56.748Z,16.30
2018-09-08T20:42:25.122Z,16.30
2018-09-08T20:44:53.511Z,16.20
2018-09-08T20:47:21.887Z,16.10
2018-09-08T20:49:50.279Z,16.10
2018-09-08T20:52:18.654Z,16.00
2018-09-08T20:54:47.140Z,16.10
2018-09-08T20:57:15.511Z,15.90
2018-09-08T20:59:43.893Z,16.00
2018-09-08T21:02:12.253Z,16.00
2018-09-08T21:04:40.620Z,15.90
2018-09-08T21:07:09.912Z,15.90
2018-09-08T21:09:39.040Z,15.80
2018-09-08T21:12:07.414Z,15.80
2018-09-08T21:14:36.131Z,15.80
2018-09-08T21:17:04.548Z,15.80
2018-09-08T21:19:32.949Z,15.80
2018-09-08T21:22:00.996Z,15.90
2018-09-08T21:24:29.677Z,16.00
2018-09-08T21:26:58.063Z,16.00
2018-09-08T21:29:26.477Z,16.00
2018-09-08T21:31:54.859Z,15.90
2018-09-08T21:34:23.243Z,15.90
2018-09-08T21:36:51.824Z,15.90
2018-09-08T21:39:20.201Z,15.90
2018-09-08T21:41:48.576Z,15.80
2018-09-08T21:44:16.972Z,15.80
2018-09-08T21:46:45.358Z,15.70
2018-09-08T21:49:13.739Z,15.70
2018-09-08T21:51:42.132Z,15.70
2018-09-08T21:54:10.492Z,15.70
2018-09-08T21:56:38.871Z,15.80
2018-09-08T21:59:07.272Z,15.60
2018-09-08T22:01:35.672Z,15.60
2018-09-08T22:04:04.084Z,15.70
2018-09-08T22:06:32.488Z,15.70
2018-09-08T22:09:00.900Z,15.60
2018-09-08T22:11:29.287Z,15.60
2018-09-08T22:13:57.645Z,15.60
2018-09-08T22:16:26.023Z,15.60
2018-09-08T22:18:54.390Z,15.60
2018-09-08T22:21:22.807Z,15.60
2018-09-08T22:23:51.172Z,15.60
2018-09-08T22:26:19.576Z,15.40
2018-09-08T22:28:47.959Z,15.50
2018-09-08T22:31:16.336Z,15.50
2018-09-08T22:33:44.707Z,15.60
2018-09-08T22:36:13.088Z,15.50
2018-09-08T22:38:41.748Z,15.50
2018-09-08T22:41:10.156Z,15.40
2018-09-08T22:43:38.557Z,15.40
2018-09-08T22:46:07.237Z,15.40
2018-09-08T22:48:35.599Z,15.40
2018-09-08T22:51:04.000Z,15.30
2018-09-08T22:53:32.391Z,15.30
2018-09-08T22:56:00.837Z,15.30
2018-09-08T22:58:29.315Z,15.30
2018-09-08T23:00:57.785Z,15.30
2018-09-08T23:03:26.317Z,15.40
2018-09-08T23:05:54.816Z,15.40
2018-09-08T23:08:23.269Z,15.40
2018-09-08T23:10:51.688Z,15.40
2018-09-08T23:13:20.160Z,15.30
2018-09-08T23:15:48.635Z,15.40
2018-09-08T23:18:17.047Z,15.40
2018-09-08T23:20:45.563Z,15.40
2018-09-08T23:23:13.983Z,15.40
2018-09-08T23:25:42.348Z,15.50
2018-09-08T23:28:10.835Z,15.40
2018-09-08T23:30:39.385Z,15.50
2018-09-08T23:33:07.843Z,15.50
2018-09-08T23:35:36.320Z,15.50
2018-09-08T23:38:04.825Z,15.50
2018-09-08T23:40:33.290Z,15.50
2018-09-08T23:43:01.913Z,15.50
2018-09-08T23:45:30.661Z,15.40
2018-09-08T23:47:59.112Z,15.40
2018-09-08T23:50:27.693Z,15.40
2018-09-08T23:52:56.228Z,15.40
2018-09-08T23:55:25.051Z,15.40
2018-09-08T23:57:53.660Z,15.40
